»·PEaware :: AAL720 KPHX-KLAS

AAL720 :: KPHX-KLAS

FLIGHT INFORMATION

Flight Status: Arrived
Operator:
American Airlines
More flights by this operator :: More flights under this callsign
Pilot: Shawn N. (11060)
Aircraft: AIRBUS A320
(A320)
More flights by this aircraft type
Origin: KPHX Phoenix Sky Harbor Intl
United States
Destination: KLAS McCarran Intl
United States
More flights between these airports :: More routes between these airports
Route: +MAYSA5 SISIE IGM TYSSN4
File this flight plan on PilotEdge
Remarks:
Altitude:
(Current/Filed)
38,000ft
Speed:
(Current/Filed)
450kts
Departed: 24-Apr-18 05:21 PM
Arrived: 24-Apr-18 06:02 PM
Distance/Time
Traveled:
221nm/0:41
Distance/Time
To Go:
Arrived

Flight Plot

Page will automatically refresh every two minutes.


Map Options




Map Legend


Flown Route
Filed Route
Departure Airport
Arrival Airport
Navaid (VOR, NDB)
Fix

Horizontal Profiles

Position Reports

Time Latitude Longitude Heading Altitude Ground
Speed
24-Apr-18 16:50 33.433385 -112.009290 90 1118ft 0kts
24-Apr-18 16:51 33.433385 -112.009290 90 1118ft 0kts
24-Apr-18 16:52 33.433385 -112.009290 90 1118ft 0kts
24-Apr-18 16:53 33.433385 -112.009290 90 1118ft 0kts
24-Apr-18 16:54 33.433385 -112.009290 90 1118ft 0kts
24-Apr-18 16:55 33.433385 -112.009290 90 1118ft 0kts
24-Apr-18 16:56 33.433385 -112.009290 90 1118ft 0kts
24-Apr-18 16:57 33.433385 -112.009290 90 1118ft 0kts
24-Apr-18 16:58 33.433385 -112.009290 90 1118ft 0kts
24-Apr-18 16:59 33.433385 -112.009290 90 1118ft 0kts
24-Apr-18 17:00 33.433385 -112.009290 90 1118ft 0kts
24-Apr-18 17:01 33.433385 -112.009290 90 1118ft 0kts
24-Apr-18 17:02 33.433385 -112.009290 90 1118ft 0kts
24-Apr-18 17:03 33.433385 -112.009290 90 1118ft 0kts
24-Apr-18 17:04 33.433385 -112.009290 90 1118ft 0kts
24-Apr-18 17:05 33.433385 -112.009290 90 1118ft 0kts
24-Apr-18 17:06 33.433385 -112.009290 90 1118ft 0kts
24-Apr-18 17:07 33.433385 -112.009290 90 1118ft 0kts
24-Apr-18 17:08 33.433385 -112.009290 90 1118ft 0kts
24-Apr-18 17:09 33.433385 -112.009290 90 1118ft 0kts
24-Apr-18 17:10 33.433385 -112.009290 90 1118ft 0kts
24-Apr-18 17:11 33.433422 -112.009664 116 1118ft 2kts
24-Apr-18 17:12 33.433848 -112.009977 181 1118ft 1kts
24-Apr-18 17:13 33.433868 -112.009976 180 1118ft 0kts
24-Apr-18 17:14 33.433868 -112.009976 180 1118ft 0kts
24-Apr-18 17:15 33.433469 -112.009973 179 1118ft 0kts
24-Apr-18 17:16 33.432844 -112.009974 180 1118ft 15kts
24-Apr-18 17:17 33.432115 -112.001705 90 1118ft 30kts
24-Apr-18 17:18 33.432143 -111.993681 95 1118ft 0kts
24-Apr-18 17:19 33.431320 -111.993457 215 1118ft 15kts
24-Apr-18 17:20 33.431098 -112.026873 269 1970ft 170kts
24-Apr-18 17:21 33.440295 -112.079947 316 5006ft 192kts
24-Apr-18 17:22 33.489658 -112.131399 317 7465ft 278kts
24-Apr-18 17:23 33.556617 -112.182017 344 10548ft 309kts
24-Apr-18 17:24 33.647396 -112.211030 344 12126ft 357kts
24-Apr-18 17:25 33.742566 -112.241797 344 14371ft 368kts
24-Apr-18 17:26 33.842260 -112.274089 344 16465ft 379kts
24-Apr-18 17:27 33.945161 -112.307494 344 18402ft 389kts
24-Apr-18 17:28 34.046466 -112.352942 320 20148ft 396kts
24-Apr-18 17:29 34.130591 -112.437704 319 21780ft 405kts
24-Apr-18 17:30 34.217584 -112.525412 319 23335ft 412kts
24-Apr-18 17:31 34.306347 -112.615095 319 24708ft 420kts
24-Apr-18 17:32 34.395691 -112.705617 319 25969ft 428kts
24-Apr-18 17:33 34.487357 -112.798795 319 27138ft 435kts
24-Apr-18 17:34 34.580082 -112.894142 317 28212ft 442kts
24-Apr-18 17:35 34.672031 -112.994494 317 29195ft 448kts
24-Apr-18 17:36 34.764807 -113.096030 317 30092ft 453kts
24-Apr-18 17:37 34.858409 -113.198810 317 30192ft 453kts
24-Apr-18 17:38 34.951514 -113.301355 317 30104ft 453kts
24-Apr-18 17:39 35.024996 -113.424180 299 30119ft 451kts
24-Apr-18 17:40 35.086779 -113.557337 299 30119ft 452kts
24-Apr-18 17:41 35.148081 -113.689782 299 30119ft 452kts
24-Apr-18 17:42 35.226269 -113.792654 316 30046ft 454kts
24-Apr-18 17:43 35.315172 -113.893462 316 29323ft 471kts
24-Apr-18 17:44 35.408402 -113.999802 316 27590ft 448kts
24-Apr-18 17:45 35.495280 -114.099172 316 24594ft 417kts
24-Apr-18 17:46 35.577597 -114.193550 316 20979ft 397kts
24-Apr-18 17:47 35.655720 -114.283390 316 17412ft 377kts
24-Apr-18 17:48 35.717864 -114.355031 316 14775ft 354kts
24-Apr-18 17:49 35.796096 -114.408605 338 12859ft 314kts
24-Apr-18 17:50 35.875087 -114.445482 338 11016ft 285kts
24-Apr-18 17:51 35.946158 -114.478739 338 10561ft 277kts
24-Apr-18 17:52 36.015963 -114.511427 338 10142ft 266kts
24-Apr-18 17:53 36.048740 -114.584083 281 10045ft 257kts
24-Apr-18 17:54 36.063386 -114.670043 281 10045ft 257kts
24-Apr-18 17:55 36.073781 -114.757426 273 10043ft 257kts
24-Apr-18 17:56 36.077642 -114.836121 269 9147ft 267kts
24-Apr-18 17:57 36.076752 -114.926288 269 7367ft 260kts
24-Apr-18 17:58 36.074298 -115.011255 265 4814ft 249kts
24-Apr-18 17:59 36.074691 -115.091834 264 2536ft 218kts
24-Apr-18 18:00 36.073638 -115.148838 271 2120ft 69kts
24-Apr-18 18:01 36.074751 -115.155199 298 2120ft 0kts
24-Apr-18 18:02 36.074750 -115.155199 298 2120ft 0kts
24-Apr-18 18:03 36.074750 -115.155199 298 2120ft 0kts
24-Apr-18 18:04 36.074865 -115.155466 297 2120ft 0kts
24-Apr-18 18:05 36.074871 -115.155479 299 2120ft 0kts
24-Apr-18 18:06 36.076007 -115.156979 315 2120ft 29kts
24-Apr-18 18:07 36.078089 -115.151818 88 2120ft 26kts
24-Apr-18 18:08 36.077514 -115.140523 90 2120ft 39kts
24-Apr-18 18:09 36.078303 -115.135623 68 2120ft 18kts
24-Apr-18 18:10 36.080780 -115.134946 234 2120ft 0kts
24-Apr-18 18:11 36.080781 -115.134946 234 2120ft 0kts
24-Apr-18 18:12 36.080781 -115.134946 234 2120ft 0kts

Navigation Log

Ident Type
1. KPHX Airport
2. SPRKY Fix
3. GOALY Fix
4. GOLDR Fix
5. ZEPER Fix
6. MAYSA Fix
7. SISIE Fix
8. IGM Navaid
9. ZATES Fix
10. KADDY Fix
11. TYSSN Fix
12. SUZSI Fix
13. PRINO Fix
14. KLAS Airport